createdAt,value
2023-02-26T19:11:24.445Z,99069.88
2023-02-26T19:12:26.828Z,99074.63
2023-02-26T19:13:29.148Z,99061.66
2023-02-26T19:14:31.443Z,99066.72
2023-02-26T19:15:33.788Z,99070.41
2023-02-26T19:16:38.865Z,99068.88
2023-02-26T19:17:42.113Z,99072.84
2023-02-26T19:18:43.922Z,99072.50
2023-02-26T19:19:45.739Z,99060.59
2023-02-26T19:20:47.497Z,99072.03
2023-02-26T19:21:49.392Z,99069.91
2023-02-26T19:22:51.318Z,99075.78
2023-02-26T19:23:53.159Z,99069.38
2023-02-26T19:24:56.214Z,99070.97
2023-02-26T19:25:58.062Z,99071.75
2023-02-26T19:26:59.845Z,99062.88
2023-02-26T19:28:02.015Z,99063.78
2023-02-26T19:29:07.103Z,99063.81
2023-02-26T19:30:10.135Z,99072.78
2023-02-26T19:31:11.997Z,99077.38
2023-02-26T19:32:13.992Z,99068.94
2023-02-26T19:33:20.388Z,99072.53
2023-02-26T19:34:23.726Z,99071.19
2023-02-26T19:35:29.711Z,99078.66
2023-02-26T19:36:34.469Z,99071.44
2023-02-26T19:37:36.352Z,99081.44
2023-02-26T19:38:38.146Z,99068.03
2023-02-26T19:39:40.036Z,99069.56
2023-02-26T19:40:41.968Z,99065.06
2023-02-26T19:41:45.848Z,99071.63
2023-02-26T19:42:48.356Z,99079.44
2023-02-26T19:43:50.104Z,99076.59
2023-02-26T19:44:51.909Z,99079.91
2023-02-26T19:45:56.014Z,99071.81
2023-02-26T19:46:58.548Z,99076.63
2023-02-26T19:48:00.461Z,99087.03
2023-02-26T19:49:02.254Z,99073.78
2023-02-26T19:50:05.460Z,99069.41
2023-02-26T19:51:08.487Z,99069.25
2023-02-26T19:52:10.303Z,99084.63
2023-02-26T19:53:12.162Z,99080.09
2023-02-26T19:54:14.157Z,99082.69
2023-02-26T19:55:16.023Z,99085.88
2023-02-26T19:56:17.841Z,99079.97
2023-02-26T19:57:21.161Z,99072.88
2023-02-26T19:58:25.841Z,99089.44
2023-02-26T19:59:27.730Z,99088.50
2023-02-26T20:00:29.823Z,99093.69
2023-02-26T20:01:31.925Z,99095.47
2023-02-26T20:02:34.144Z,99095.47
2023-02-26T20:03:36.120Z,99091.78
2023-02-26T20:04:37.900Z,99090.97
2023-02-26T20:05:39.730Z,99091.91
2023-02-26T20:06:41.647Z,99092.75
2023-02-26T20:07:45.469Z,99093.44
2023-02-26T20:08:47.719Z,99090.97
2023-02-26T20:09:49.893Z,99098.63
2023-02-26T20:10:54.394Z,99102.19
2023-02-26T20:11:56.138Z,99092.59
2023-02-26T20:12:58.314Z,99098.63
2023-02-26T20:14:00.199Z,99096.16
2023-02-26T20:15:02.431Z,99092.88
2023-02-26T20:16:08.644Z,99104.66
2023-02-26T20:17:10.453Z,99095.34
2023-02-26T20:18:12.264Z,99099.72
2023-02-26T20:19:14.112Z,99103.41
2023-02-26T20:20:16.415Z,99101.66
2023-02-26T20:21:18.200Z,99101.66
2023-02-26T20:22:22.853Z,99100.94
2023-02-26T20:23:25.492Z,99094.91
2023-02-26T20:24:27.428Z,99101.06
2023-02-26T20:25:30.583Z,99108.06
2023-02-26T20:26:32.806Z,99105.72
2023-02-26T20:27:36.297Z,99113.41
2023-02-26T20:28:39.332Z,99120.38
2023-02-26T20:29:41.186Z,99116.13
2023-02-26T20:30:43.171Z,99112.31
2023-02-26T20:31:49.400Z,99119.28
2023-02-26T20:32:51.405Z,99116.97
2023-02-26T20:33:53.383Z,99119.56
2023-02-26T20:34:55.191Z,99124.63
2023-02-26T20:35:56.929Z,99119.69
2023-02-26T20:36:58.711Z,99128.19
2023-02-26T20:38:00.601Z,99124.09
2023-02-26T20:39:02.510Z,99124.91
2023-02-26T20:40:06.268Z,99123.13
2023-02-26T20:41:08.633Z,99126.56
2023-02-26T20:42:10.451Z,99118.88
2023-02-26T20:43:12.280Z,99124.91
2023-02-26T20:44:14.148Z,99126.00
2023-02-26T20:45:16.161Z,99126.69
2023-02-26T20:46:17.967Z,99122.53
2023-02-26T20:47:19.761Z,99123.25
2023-02-26T20:48:22.249Z,99137.22
2023-02-26T20:49:25.460Z,99130.34
2023-02-26T20:50:27.547Z,99133.66
2023-02-26T20:51:29.508Z,99137.34
2023-02-26T20:52:31.430Z,99135.81
2023-02-26T20:53:33.632Z,99139.94
2023-02-26T20:54:35.555Z,99141.97
2023-02-26T20:55:37.336Z,99144.59
2023-02-26T20:56:39.157Z,99146.25
2023-02-26T20:57:40.980Z,99150.63
2023-02-26T20:58:42.727Z,99152.53
2023-02-26T20:59:44.526Z,99145.69
2023-02-26T21:00:46.556Z,99149.50
2023-02-26T21:01:51.320Z,99156.34
2023-02-26T21:02:53.173Z,99155.75
2023-02-26T21:03:54.972Z,99158.25
2023-02-26T21:04:56.761Z,99159.06
2023-02-26T21:05:58.549Z,99157.53
2023-02-26T21:07:12.815Z,99156.72
2023-02-26T21:08:14.734Z,99155.06
2023-02-26T21:09:16.734Z,99154.25
2023-02-26T21:10:19.942Z,99153.56
2023-02-26T21:11:21.795Z,99150.00
2023-02-26T21:12:23.771Z,99152.59
2023-02-26T21:13:25.564Z,99151.78
2023-02-26T21:14:28.434Z,99153.56
2023-02-26T21:15:30.195Z,99161.63
2023-02-26T21:16:32.740Z,99157.94
2023-02-26T21:17:34.537Z,99158.91
2023-02-26T21:18:36.273Z,99165.88
2023-02-26T21:19:38.068Z,99154.75
2023-02-26T21:20:39.884Z,99150.41
2023-02-26T21:21:41.681Z,99153.81
2023-02-26T21:22:45.410Z,99153.09
2023-02-26T21:23:47.410Z,99154.75
2023-02-26T21:24:49.695Z,99152.13
2023-02-26T21:25:51.516Z,99156.53
2023-02-26T21:26:53.309Z,99160.09
2023-02-26T21:27:55.074Z,99155.69
2023-02-26T21:28:56.800Z,99156.78
2023-02-26T21:29:58.906Z,99158.44
2023-02-26T21:31:01.837Z,99157.63
2023-02-26T21:32:04.889Z,99160.34
2023-02-26T21:33:08.436Z,99155.97
2023-02-26T21:34:32.063Z,99155.41
2023-02-26T21:35:32.578Z,99157.19
2023-02-26T21:36:34.476Z,99158.81
2023-02-26T21:37:36.253Z,99159.66
2023-02-26T21:38:38.663Z,99158.69
2023-02-26T21:39:40.629Z,99163.06
2023-02-26T21:40:42.457Z,99156.34
2023-02-26T21:41:44.251Z,99161.31
2023-02-26T21:42:46.010Z,99152.94
2023-02-26T21:43:48.021Z,99165.13
2023-02-26T21:44:49.978Z,99157.31
2023-02-26T21:45:51.832Z,99165.22
2023-02-26T21:46:54.183Z,99169.50
2023-02-26T21:47:56.548Z,99168.53
2023-02-26T21:48:58.321Z,99164.41
2023-02-26T21:50:00.139Z,99162.75
2023-02-26T21:51:02.568Z,99165.22
2023-02-26T21:52:06.667Z,99168.63
2023-02-26T21:53:08.517Z,99161.91
2023-02-26T21:54:10.437Z,99169.72
2023-02-26T21:55:12.574Z,99173.97
2023-02-26T21:56:14.506Z,99165.34
2023-02-26T21:57:16.246Z,99166.31
2023-02-26T21:58:18.006Z,99168.22
2023-02-26T21:59:20.414Z,99169.84
2023-02-26T22:00:22.862Z,99167.25
2023-02-26T22:01:25.169Z,99169.72
2023-02-26T22:02:27.180Z,99171.50
2023-02-26T22:03:28.961Z,99170.69
2023-02-26T22:04:30.757Z,99177.53
2023-02-26T22:05:32.542Z,99168.22
2023-02-26T22:06:34.935Z,99162.88
2023-02-26T22:07:37.931Z,99169.16
2023-02-26T22:08:39.655Z,99175.06
2023-02-26T22:09:41.837Z,99159.44
2023-02-26T22:10:45.479Z,99170.09
2023-02-26T22:11:48.029Z,99164.66
2023-02-26T22:12:49.839Z,99166.56
2023-02-26T22:13:51.587Z,99166.44
2023-02-26T22:14:53.374Z,99166.44
2023-02-26T22:15:55.181Z,99165.75
2023-02-26T22:16:57.060Z,99174.25
2023-02-26T22:17:58.840Z,99170.00
2023-02-26T22:19:00.787Z,99167.38
2023-02-26T22:20:06.864Z,99169.16
2023-02-26T22:21:09.408Z,99174.38
2023-02-26T22:22:11.134Z,99161.47
2023-02-26T22:23:13.072Z,99161.72
2023-02-26T22:24:14.925Z,99168.66
2023-02-26T22:25:17.058Z,99166.44
2023-02-26T22:26:18.846Z,99157.81
2023-02-26T22:27:20.764Z,99157.00
2023-02-26T22:28:22.549Z,99156.03
2023-02-26T22:29:24.639Z,99161.38
2023-02-26T22:30:26.532Z,99165.75
2023-02-26T22:31:29.191Z,99157.94
2023-02-26T22:32:31.370Z,99153.72
2023-02-26T22:33:33.215Z,99161.50
2023-02-26T22:34:36.671Z,99169.44
2023-02-26T22:35:38.478Z,99167.88
2023-02-26T22:36:40.258Z,99163.78
2023-02-26T22:37:42.829Z,99166.38
2023-02-26T22:38:44.579Z,99168.97
2023-02-26T22:39:46.306Z,99168.97
2023-02-26T22:40:48.055Z,99171.56
2023-02-26T22:41:49.831Z,99175.00
2023-02-26T22:42:51.608Z,99166.75
2023-02-26T22:43:54.123Z,99164.84
2023-02-26T22:44:56.017Z,99175.38
2023-02-26T22:45:57.823Z,99171.13
2023-02-26T22:46:59.658Z,99167.72
2023-02-26T22:48:01.514Z,99164.97
2023-02-26T22:49:03.655Z,99169.50
2023-02-26T22:50:06.143Z,99163.69
2023-02-26T22:51:07.899Z,99167.94
2023-02-26T22:52:10.549Z,99173.41
2023-02-26T22:53:12.364Z,99171.75
2023-02-26T22:54:14.168Z,99171.75
2023-02-26T22:55:16.090Z,99174.47
2023-02-26T22:56:17.900Z,99176.13
2023-02-26T22:57:20.289Z,99168.19
2023-02-26T22:58:22.866Z,99170.09
2023-02-26T22:59:25.069Z,99168.44
2023-02-26T23:00:27.801Z,99174.47
2023-02-26T23:01:29.933Z,99170.09
2023-02-26T23:02:31.703Z,99164.91
2023-02-26T23:03:34.141Z,99173.66
2023-02-26T23:04:36.107Z,99165.03
2023-02-26T23:05:37.870Z,99169.63
2023-02-26T23:06:39.681Z,99170.72
2023-02-26T23:07:42.531Z,99167.16
2023-02-26T23:08:44.253Z,99173.31
2023-02-26T23:09:46.032Z,99165.63
2023-02-26T23:10:47.941Z,99168.22
2023-02-26T23:11:49.987Z,99163.28
2023-02-26T23:12:51.835Z,99164.47
2023-02-26T23:13:53.720Z,99168.00
2023-02-26T23:14:55.615Z,99161.97
2023-02-26T23:15:58.272Z,99155.00
2023-02-26T23:17:00.300Z,99156.78
2023-02-26T23:18:02.079Z,99154.19
2023-02-26T23:19:04.519Z,99163.06
2023-02-26T23:20:10.097Z,99164.72
2023-02-26T23:21:12.288Z,99168.25
2023-02-26T23:22:14.070Z,99168.38
2023-02-26T23:23:16.910Z,99165.09
2023-02-26T23:24:18.706Z,99162.50
2023-02-26T23:25:20.435Z,99161.75
2023-02-26T23:26:22.411Z,99168.03
2023-02-26T23:27:24.155Z,99164.63
2023-02-26T23:28:26.093Z,99166.13
2023-02-26T23:29:27.871Z,99162.16
2023-02-26T23:30:29.719Z,99160.50
2023-02-26T23:31:31.932Z,99157.63
2023-02-26T23:32:33.805Z,99167.34
2023-02-26T23:33:35.634Z,99158.97
2023-02-26T23:34:37.467Z,99168.28
2023-02-26T23:35:39.596Z,99162.41
2023-02-26T23:36:42.269Z,99167.84
2023-02-26T23:37:44.101Z,99165.81
2023-02-26T23:38:45.931Z,99166.16
2023-02-26T23:39:49.011Z,99163.47
2023-02-26T23:40:50.939Z,99163.22
2023-02-26T23:41:52.838Z,99164.28
2023-02-26T23:42:54.613Z,99163.56
2023-02-26T23:43:56.508Z,99167.13
2023-02-26T23:44:58.279Z,99162.75
2023-02-26T23:46:00.191Z,99161.09
2023-02-26T23:47:02.023Z,99159.31
2023-02-26T23:48:03.991Z,99163.94
2023-02-26T23:49:05.803Z,99162.41
2023-02-26T23:50:08.078Z,99168.44
2023-02-26T23:51:09.870Z,99159.00
2023-02-26T23:52:11.608Z,99166.66
2023-02-26T23:53:13.375Z,99164.19
2023-02-26T23:54:15.385Z,99169.25
2023-02-26T23:55:17.736Z,99165.97
2023-02-26T23:56:19.554Z,99159.13
2023-02-26T23:57:21.313Z,99168.78
2023-02-26T23:58:28.784Z,99172.22
2023-02-26T23:59:30.620Z,99167.84
